createdAt,value
2023-04-28T00:01:45.879Z,100450.63
2023-04-28T00:04:12.966Z,100449.19
2023-04-28T00:06:40.246Z,100453.59
2023-04-28T00:09:11.176Z,100438.53
2023-04-28T00:11:38.712Z,100448.63
2023-04-28T00:14:06.038Z,100446.53
2023-04-28T00:16:32.855Z,100457.69
2023-04-28T00:18:59.636Z,100450.75
2023-04-28T00:21:26.515Z,100455.28
2023-04-28T00:23:53.622Z,100453.06
2023-04-28T00:26:21.015Z,100449.22
2023-04-28T00:28:48.026Z,100447.91
2023-04-28T00:31:16.424Z,100437.56
2023-04-28T00:33:44.922Z,100444.25
2023-04-28T00:36:12.210Z,100441.97
2023-04-28T00:38:39.082Z,100442.16
2023-04-28T00:41:06.551Z,100438.31
2023-04-28T00:43:43.607Z,100435.28
2023-04-28T00:46:11.083Z,100435.41
2023-04-28T00:48:39.415Z,100439.00
2023-04-28T00:51:06.864Z,100438.66
2023-04-28T00:53:34.151Z,100441.41
2023-04-28T00:56:01.252Z,100439.00
2023-04-28T00:58:29.616Z,100437.75
2023-04-28T01:01:07.310Z,100444.38
2023-04-28T01:03:39.786Z,100447.66
2023-04-28T01:06:08.721Z,100446.38
2023-04-28T01:08:37.934Z,100448.84
2023-04-28T01:11:07.377Z,100447.25
2023-04-28T01:13:54.695Z,100445.03
2023-04-28T01:16:22.726Z,100446.31
2023-04-28T01:18:50.181Z,100450.56
2023-04-28T01:21:32.904Z,100442.81
2023-04-28T01:24:07.175Z,100450.56
2023-04-28T01:26:34.116Z,100454.63
2023-04-28T01:29:01.736Z,100452.09
2023-04-28T01:31:31.182Z,100447.38
2023-04-28T01:33:58.448Z,100443.53
2023-04-28T01:36:27.402Z,100438.69
2023-04-28T01:38:55.040Z,100443.84
2023-04-28T01:41:22.567Z,100447.72
2023-04-28T01:43:49.483Z,100451.13
2023-04-28T01:46:16.631Z,100451.63
2023-04-28T01:48:43.419Z,100450.50
2023-04-28T01:51:11.425Z,100447.09
2023-04-28T01:53:38.927Z,100451.63
2023-04-28T01:56:05.988Z,100445.66
2023-04-28T01:58:34.597Z,100446.97
2023-04-28T02:01:01.422Z,100446.50
2023-04-28T02:03:28.790Z,100449.25
2023-04-28T02:05:56.660Z,100445.19
2023-04-28T02:08:23.524Z,100444.38
2023-04-28T02:10:52.312Z,100436.00
2023-04-28T02:13:22.286Z,100450.38
2023-04-28T02:15:49.183Z,100448.09
2023-04-28T02:18:16.306Z,100443.59
2023-04-28T02:20:43.214Z,100441.03
2023-04-28T02:23:10.318Z,100436.81
2023-04-28T02:25:37.177Z,100440.66
2023-04-28T02:28:04.236Z,100456.66
2023-04-28T02:30:34.700Z,100454.53
2023-04-28T02:33:01.622Z,100449.38
2023-04-28T02:35:28.664Z,100455.19
2023-04-28T02:37:55.574Z,100450.53
2023-04-28T02:40:22.489Z,100448.09
2023-04-28T02:42:49.288Z,100445.19
2023-04-28T02:45:16.348Z,100449.22
2023-04-28T02:47:43.365Z,100450.34
2023-04-28T02:50:10.929Z,100448.06
2023-04-28T02:52:38.260Z,100442.75
2023-04-28T02:55:05.848Z,100451.78
2023-04-28T02:57:33.027Z,100450.66
2023-04-28T03:00:00.749Z,100453.56
2023-04-28T03:02:33.139Z,100453.38
2023-04-28T03:05:00.156Z,100442.25
2023-04-28T03:07:28.263Z,100452.91
2023-04-28T03:09:55.067Z,100453.56
2023-04-28T03:12:21.929Z,100451.00
2023-04-28T03:14:48.841Z,100454.53
2023-04-28T03:17:17.637Z,100445.84
2023-04-28T03:19:44.483Z,100444.53
2023-04-28T03:22:11.748Z,100439.19
2023-04-28T03:24:38.648Z,100440.53
2023-04-28T03:27:05.987Z,100440.66
2023-04-28T03:29:33.055Z,100437.78
2023-04-28T03:32:00.239Z,100434.22
2023-04-28T03:34:28.049Z,100424.53
2023-04-28T03:36:55.409Z,100428.72
2023-04-28T03:39:27.776Z,100430.03
2023-04-28T03:41:54.723Z,100440.19
2023-04-28T03:44:36.576Z,100437.59
2023-04-28T03:47:04.318Z,100435.34
2023-04-28T03:49:31.249Z,100436.16
2023-04-28T03:51:58.243Z,100427.78
2023-04-28T03:54:26.126Z,100427.63
2023-04-28T03:56:53.245Z,100427.47
2023-04-28T03:59:20.069Z,100428.88
2023-04-28T04:01:47.061Z,100439.84
2023-04-28T04:04:14.033Z,100431.94
2023-04-28T04:06:41.198Z,100435.50
2023-04-28T04:09:10.162Z,100435.97
2023-04-28T04:11:38.287Z,100441.59
2023-04-28T04:14:06.318Z,100449.66
2023-04-28T04:16:33.436Z,100442.56
2023-04-28T04:19:00.457Z,100446.41
2023-04-28T04:21:33.168Z,100440.31
2023-04-28T04:24:01.503Z,100440.31
2023-04-28T04:26:28.938Z,100454.34
2023-04-28T04:28:56.297Z,100451.38
2023-04-28T04:31:24.687Z,100448.16
2023-04-28T04:33:52.031Z,100449.59
2023-04-28T04:36:20.931Z,100450.84
2023-04-28T04:38:47.883Z,100456.97
2023-04-28T04:41:22.828Z,100456.97
2023-04-28T04:43:55.907Z,100451.19
2023-04-28T04:46:28.652Z,100449.25
2023-04-28T04:48:55.742Z,100441.09
2023-04-28T04:51:23.723Z,100459.09
2023-04-28T04:53:50.579Z,100447.84
2023-04-28T04:56:17.607Z,100447.16
2023-04-28T04:58:47.059Z,100450.00
2023-04-28T05:01:36.696Z,100452.16
2023-04-28T05:04:03.841Z,100445.50
2023-04-28T05:06:31.837Z,100440.06
2023-04-28T05:08:59.378Z,100439.78
2023-04-28T05:11:26.950Z,100437.88
2023-04-28T05:13:53.789Z,100444.88
2023-04-28T05:16:21.160Z,100442.97
2023-04-28T05:18:48.480Z,100440.03
2023-04-28T05:21:15.988Z,100439.47
2023-04-28T05:23:43.190Z,100435.16
2023-04-28T05:26:10.734Z,100440.69
2023-04-28T05:28:37.580Z,100441.22
2023-04-28T05:31:04.569Z,100446.72
2023-04-28T05:33:32.728Z,100448.28
2023-04-28T05:35:59.663Z,100449.94
2023-04-28T05:38:26.898Z,100455.38
2023-04-28T05:40:55.496Z,100449.47
2023-04-28T05:43:22.468Z,100441.09
2023-04-28T05:45:52.589Z,100447.91
2023-04-28T05:48:20.241Z,100444.53
2023-04-28T05:50:47.330Z,100440.59
2023-04-28T05:53:15.720Z,100439.28
2023-04-28T05:55:42.900Z,100439.06
2023-04-28T05:58:10.374Z,100441.34
2023-04-28T06:00:38.086Z,100444.56
2023-04-28T06:03:07.113Z,100455.69
2023-04-28T06:05:34.384Z,100448.47
2023-04-28T06:08:01.655Z,100454.28
2023-04-28T06:10:28.550Z,100451.75
2023-04-28T06:12:57.988Z,100449.84
2023-04-28T06:15:24.927Z,100457.25
2023-04-28T06:17:51.985Z,100451.94
2023-04-28T06:20:19.119Z,100457.50
2023-04-28T06:22:46.159Z,100450.88
2023-04-28T06:25:12.988Z,100451.22
2023-04-28T06:27:45.141Z,100447.06
2023-04-28T06:30:18.331Z,100450.28
2023-04-28T06:32:45.085Z,100443.28
2023-04-28T06:35:14.440Z,100438.13
2023-04-28T06:37:42.508Z,100442.22
2023-04-28T06:40:10.134Z,100438.22
2023-04-28T06:42:40.656Z,100434.28
2023-04-28T06:45:11.974Z,100429.00
2023-04-28T06:47:40.789Z,100425.13
2023-04-28T06:50:09.872Z,100422.69
2023-04-28T06:52:39.754Z,100423.41
2023-04-28T06:55:10.767Z,100426.75
2023-04-28T06:57:38.342Z,100423.09
2023-04-28T07:00:06.765Z,100431.34
2023-04-28T07:02:35.228Z,100431.56
2023-04-28T07:05:05.445Z,100425.19
2023-04-28T07:07:33.244Z,100418.81
2023-04-28T07:10:01.062Z,100423.50
2023-04-28T07:12:31.182Z,100422.34
2023-04-28T07:14:58.359Z,100429.50
2023-04-28T07:17:25.327Z,100421.09
2023-04-28T07:19:52.363Z,100419.44
2023-04-28T07:22:19.677Z,100420.81
2023-04-28T07:24:46.541Z,100422.91
2023-04-28T07:27:14.493Z,100409.69
2023-04-28T07:29:41.394Z,100401.66
2023-04-28T07:32:10.716Z,100406.16
2023-04-28T07:34:38.264Z,100396.13
2023-04-28T07:37:05.727Z,100391.78
2023-04-28T07:39:34.963Z,100398.19
2023-04-28T07:42:03.494Z,100394.47
2023-04-28T07:44:31.709Z,100381.00
2023-04-28T07:47:01.997Z,100385.47
2023-04-28T07:49:32.208Z,100379.88
2023-04-28T07:51:59.259Z,100388.47
2023-04-28T07:54:27.448Z,100387.06
2023-04-28T07:56:58.168Z,100389.09
2023-04-28T07:59:26.837Z,100373.78
2023-04-28T08:01:54.994Z,100376.88
2023-04-28T08:04:22.211Z,100368.75
2023-04-28T08:06:49.908Z,100373.53
2023-04-28T08:09:16.879Z,100374.75
2023-04-28T08:11:43.710Z,100358.56
2023-04-28T08:14:10.562Z,100360.06
2023-04-28T08:16:40.465Z,100362.94
2023-04-28T08:19:07.696Z,100373.25
2023-04-28T08:21:37.520Z,100368.03
2023-04-28T08:24:04.706Z,100366.31
2023-04-28T08:26:32.318Z,100360.19
2023-04-28T08:28:59.271Z,100373.28
2023-04-28T08:31:26.308Z,100375.03
2023-04-28T08:33:54.417Z,100369.09
2023-04-28T08:36:23.673Z,100365.75
2023-04-28T08:38:50.480Z,100364.50
2023-04-28T08:41:18.172Z,100372.59
2023-04-28T08:43:45.708Z,100372.22
2023-04-28T08:46:14.814Z,100366.59
2023-04-28T08:48:45.287Z,100354.16
2023-04-28T08:51:17.248Z,100353.09
2023-04-28T08:54:14.990Z,100354.84
2023-04-28T08:56:39.493Z,100340.47
2023-04-28T08:59:06.752Z,100334.63
2023-04-28T09:01:33.796Z,100336.72
2023-04-28T09:04:06.825Z,100328.03
2023-04-28T09:06:36.322Z,100323.25
2023-04-28T09:09:23.644Z,100325.78
2023-04-28T09:12:04.939Z,100325.72
2023-04-28T09:14:36.934Z,100329.59
2023-04-28T09:17:14.382Z,100328.13
2023-04-28T09:19:45.911Z,100323.25
2023-04-28T09:24:47.367Z,100316.47
2023-04-28T09:27:15.546Z,100307.94
2023-04-28T09:29:53.573Z,100304.41
2023-04-28T09:32:24.831Z,100303.72
2023-04-28T09:34:53.971Z,100305.94
2023-04-28T09:37:23.413Z,100292.53
2023-04-28T09:39:52.004Z,100297.63
2023-04-28T09:42:40.918Z,100301.09
2023-04-28T09:45:10.159Z,100289.47
2023-04-28T09:47:40.884Z,100288.84
2023-04-28T09:50:14.606Z,100270.59
2023-04-28T09:52:57.946Z,100261.72
2023-04-28T09:55:25.467Z,100257.63
2023-04-28T09:57:55.871Z,100252.81
2023-04-28T10:00:23.956Z,100248.97
2023-04-28T10:02:52.321Z,100247.84
2023-04-28T10:05:22.006Z,100232.94
2023-04-28T10:07:49.600Z,100235.00
2023-04-28T10:10:17.118Z,100223.97
2023-04-28T10:12:44.949Z,100237.06
2023-04-28T10:15:13.288Z,100229.34
2023-04-28T10:17:40.734Z,100223.31
2023-04-28T10:20:09.421Z,100219.19
2023-04-28T10:23:13.806Z,100229.91
2023-04-28T10:25:42.566Z,100217.28
2023-04-28T10:28:10.763Z,100208.06
2023-04-28T10:30:38.166Z,100211.94
2023-04-28T10:33:14.426Z,100208.41
2023-04-28T10:35:44.507Z,100210.19
2023-04-28T10:38:22.971Z,100203.13
2023-04-28T10:40:51.617Z,100198.06
2023-04-28T10:43:33.281Z,100185.91
2023-04-28T10:46:05.050Z,100191.34
2023-04-28T10:48:35.086Z,100193.38
2023-04-28T10:51:08.075Z,100184.03
2023-04-28T10:53:45.766Z,100178.31
2023-04-28T10:56:21.442Z,100170.44
2023-04-28T10:58:50.700Z,100171.44
2023-04-28T11:01:34.600Z,100170.91
2023-04-28T11:04:13.220Z,100169.72
2023-04-28T11:06:45.906Z,100161.81
2023-04-28T11:09:15.719Z,100157.03
2023-04-28T11:12:01.270Z,100160.09
2023-04-28T11:14:43.278Z,100150.25
2023-04-28T11:17:17.462Z,100146.06
2023-04-28T11:19:45.400Z,100152.75
2023-04-28T11:22:17.522Z,100150.00
2023-04-28T11:25:02.721Z,100146.97
2023-04-28T11:27:34.589Z,100148.81
2023-04-28T11:30:02.164Z,100135.63
2023-04-28T11:32:35.350Z,100126.16
2023-04-28T11:35:04.837Z,100126.13
2023-04-28T11:37:33.502Z,100138.78
2023-04-28T11:40:11.411Z,100121.06
2023-04-28T11:42:46.762Z,100118.75
2023-04-28T11:45:13.839Z,100115.66
2023-04-28T11:47:40.951Z,100106.63
2023-04-28T11:50:08.349Z,100104.41
2023-04-28T11:52:35.382Z,100095.09
2023-04-28T11:55:02.560Z,100099.03
2023-04-28T11:57:30.857Z,100094.91
2023-04-28T12:00:22.208Z,100100.63
2023-04-28T12:02:49.805Z,100083.91
2023-04-28T12:05:17.220Z,100076.66
2023-04-28T12:07:45.724Z,100077.13
2023-04-28T12:10:14.423Z,100076.28
2023-04-28T12:12:51.069Z,100076.47
2023-04-28T12:15:20.667Z,100070.59
2023-04-28T12:17:48.728Z,100074.81
2023-04-28T12:20:38.588Z,100070.09
2023-04-28T12:23:11.051Z,100058.78
2023-04-28T12:25:45.441Z,100063.09
2023-04-28T12:28:12.620Z,100056.31
2023-04-28T12:30:42.253Z,100055.84
2023-04-28T12:33:27.055Z,100048.66
2023-04-28T12:35:56.017Z,100051.53
2023-04-28T12:38:23.949Z,100062.53
2023-04-28T12:40:55.625Z,100061.50
2023-04-28T12:43:28.961Z,100056.22
2023-04-28T12:45:56.966Z,100057.28
2023-04-28T12:48:25.260Z,100055.22
2023-04-28T12:50:52.562Z,100040.78
2023-04-28T12:53:19.595Z,100047.84
2023-04-28T12:55:46.624Z,100032.03
2023-04-28T12:58:22.509Z,100034.94
2023-04-28T13:00:51.812Z,100031.56
2023-04-28T13:03:19.994Z,100018.19
2023-04-28T13:05:49.619Z,100014.25
2023-04-28T13:08:16.455Z,100009.00
2023-04-28T13:10:43.604Z,100014.72
2023-04-28T13:13:12.645Z,100012.03
2023-04-28T13:15:39.536Z,100013.59
2023-04-28T13:18:06.566Z,100015.91
2023-04-28T13:20:33.453Z,100022.16
2023-04-28T13:23:07.581Z,100016.56
2023-04-28T13:25:34.736Z,100016.41
2023-04-28T13:28:08.371Z,100019.47
2023-04-28T13:30:35.606Z,100010.56
2023-04-28T13:33:02.618Z,100008.69
2023-04-28T13:35:29.545Z,100014.16
2023-04-28T13:38:01.852Z,100019.19
2023-04-28T13:40:29.783Z,100015.19
2023-04-28T13:42:56.750Z,100022.03
2023-04-28T13:45:23.544Z,100022.19
2023-04-28T13:47:51.201Z,100019.00
2023-04-28T13:50:18.202Z,100013.88
2023-04-28T13:52:45.069Z,100019.09
2023-04-28T13:55:12.252Z,100015.13
2023-04-28T13:57:39.062Z,100011.19
2023-04-28T14:00:06.633Z,99996.41
2023-04-28T14:02:35.100Z,99996.16
2023-04-28T14:05:03.075Z,100001.13
2023-04-28T14:07:31.059Z,99990.63
2023-04-28T14:09:57.951Z,99987.28
2023-04-28T14:12:25.360Z,99979.69
2023-04-28T14:14:52.204Z,99987.56
2023-04-28T14:17:19.061Z,99981.72
2023-04-28T14:19:46.420Z,99980.16
2023-04-28T14:22:13.530Z,99977.53
2023-04-28T14:24:42.153Z,99977.78
2023-04-28T14:27:09.664Z,99988.78
2023-04-28T14:29:36.443Z,99987.38
2023-04-28T14:32:03.398Z,99980.53
2023-04-28T14:34:30.349Z,99988.47
2023-04-28T14:36:57.299Z,99991.16
2023-04-28T14:39:24.496Z,99978.78
2023-04-28T14:41:51.448Z,99973.53
2023-04-28T14:44:18.268Z,99965.88
2023-04-28T14:46:45.206Z,99974.78
2023-04-28T14:49:12.226Z,99962.41
2023-04-28T14:51:39.076Z,99954.81
2023-04-28T14:54:06.003Z,99962.69
2023-04-28T14:56:33.956Z,99957.72
2023-04-28T14:59:01.084Z,99958.59
2023-04-28T15:01:28.188Z,99948.66
2023-04-28T15:03:55.646Z,99952.63
2023-04-28T15:06:22.858Z,99954.25
2023-04-28T15:08:49.753Z,99952.63
2023-04-28T15:11:17.578Z,99957.03
2023-04-28T15:13:44.397Z,99940.00
2023-04-28T15:16:11.397Z,99935.00
2023-04-28T15:18:39.619Z,99921.78
2023-04-28T15:21:07.009Z,99911.25
2023-04-28T15:23:35.168Z,99908.06
2023-04-28T15:26:02.591Z,99899.38
2023-04-28T15:28:29.548Z,99897.50
2023-04-28T15:30:56.990Z,99882.25
2023-04-28T15:33:25.016Z,99872.25
2023-04-28T15:35:52.531Z,99856.97
2023-04-28T15:38:19.383Z,99848.03
2023-04-28T15:40:46.877Z,99854.84
2023-04-28T15:43:13.836Z,99884.22
2023-04-28T15:45:41.027Z,99894.72
2023-04-28T15:48:09.237Z,99899.91
2023-04-28T15:50:37.616Z,99911.59
2023-04-28T15:53:04.541Z,99911.31
2023-04-28T15:55:31.485Z,99910.81
2023-04-28T15:57:59.379Z,99909.03
2023-04-28T16:00:26.454Z,99896.31
2023-04-28T16:02:53.374Z,99889.59
2023-04-28T16:05:20.490Z,99882.84
2023-04-28T16:07:47.610Z,99866.59
2023-04-28T16:10:16.608Z,99853.50
2023-04-28T16:12:44.005Z,99857.25
2023-04-28T16:15:13.097Z,99845.91
2023-04-28T16:17:41.537Z,99843.28
2023-04-28T16:20:10.240Z,99839.31
2023-04-28T16:22:38.769Z,99836.06
2023-04-28T16:25:06.557Z,99829.69
2023-04-28T16:27:35.643Z,99833.38
2023-04-28T16:30:03.534Z,99842.75
2023-04-28T16:32:36.330Z,99846.06
2023-04-28T16:35:06.368Z,99845.19
2023-04-28T16:37:33.729Z,99855.69
2023-04-28T16:40:00.706Z,99851.91
2023-04-28T16:42:27.689Z,99858.22
2023-04-28T16:44:55.072Z,99851.41
2023-04-28T16:47:22.250Z,99836.16
2023-04-28T16:49:49.285Z,99833.25
2023-04-28T16:52:16.748Z,99836.06
2023-04-28T16:54:43.624Z,99838.66
2023-04-28T16:57:10.792Z,99828.38
2023-04-28T16:59:46.624Z,99831.78
2023-04-28T17:02:13.519Z,99834.09
2023-04-28T17:04:40.690Z,99832.25
2023-04-28T17:07:07.828Z,99832.75
2023-04-28T17:09:34.748Z,99837.44
2023-04-28T17:12:03.889Z,99829.28
2023-04-28T17:14:31.175Z,99833.97
2023-04-28T17:16:58.157Z,99841.56
2023-04-28T17:19:25.064Z,99846.03
2023-04-28T17:21:52.885Z,99846.81
2023-04-28T17:24:19.788Z,99844.44
2023-04-28T17:26:47.129Z,99836.28
2023-04-28T17:29:14.261Z,99835.16
2023-04-28T17:31:43.448Z,99845.88
2023-04-28T17:34:10.551Z,99838.28
2023-04-28T17:36:38.141Z,99842.41
2023-04-28T17:39:07.677Z,99846.06
2023-04-28T17:41:34.606Z,99849.91
2023-04-28T17:44:01.734Z,99852.44
2023-04-28T17:46:28.902Z,99853.13
2023-04-28T17:48:56.081Z,99841.69
2023-04-28T17:51:23.108Z,99845.03
2023-04-28T17:53:50.062Z,99839.97
2023-04-28T17:56:17.089Z,99846.13
2023-04-28T17:58:43.965Z,99857.53
2023-04-28T18:01:10.894Z,99850.91
2023-04-28T18:03:39.297Z,99848.72
2023-04-28T18:06:08.436Z,99845.94
2023-04-28T18:08:36.883Z,99849.09
2023-04-28T18:11:04.880Z,99844.78
2023-04-28T18:13:32.795Z,99853.84
2023-04-28T18:16:00.082Z,99852.59
2023-04-28T18:18:30.046Z,99857.00
2023-04-28T18:20:59.225Z,99855.75
2023-04-28T18:23:27.271Z,99853.53
2023-04-28T18:25:54.106Z,99847.94
2023-04-28T18:28:21.246Z,99850.47
2023-04-28T18:30:48.169Z,99849.56
2023-04-28T18:33:15.059Z,99842.81
2023-04-28T18:35:41.912Z,99853.25
2023-04-28T18:38:08.869Z,99851.19
2023-04-28T18:40:40.814Z,99845.31
2023-04-28T18:43:10.475Z,99847.66
2023-04-28T18:45:41.192Z,99830.88
2023-04-28T18:48:09.713Z,99841.78
2023-04-28T18:50:36.979Z,99837.44
2023-04-28T18:53:05.079Z,99851.59
2023-04-28T18:55:36.927Z,99857.34
2023-04-28T18:58:06.730Z,99855.44
2023-04-28T19:00:36.878Z,99856.53
2023-04-28T19:03:04.823Z,99850.28
2023-04-28T19:05:31.980Z,99844.28
2023-04-28T19:07:58.812Z,99845.06
2023-04-28T19:10:25.868Z,99853.94
2023-04-28T19:12:52.850Z,99861.09
2023-04-28T19:15:19.773Z,99842.81
2023-04-28T19:17:46.682Z,99835.38
2023-04-28T19:20:13.807Z,99838.09
2023-04-28T19:22:41.801Z,99851.44
2023-04-28T19:25:08.991Z,99860.13
2023-04-28T19:27:37.754Z,99863.28
2023-04-28T19:30:07.389Z,99869.03
2023-04-28T19:32:36.822Z,99860.28
2023-04-28T19:35:04.800Z,99852.63
2023-04-28T19:37:37.107Z,99854.28
2023-04-28T19:40:59.511Z,99854.03
2023-04-28T19:44:03.492Z,99849.91
2023-04-28T19:46:30.558Z,99837.13
2023-04-28T19:49:00.642Z,99839.59
2023-04-28T19:51:27.908Z,99835.25
2023-04-28T19:53:59.742Z,99834.81
2023-04-28T19:56:27.290Z,99842.47
2023-04-28T19:58:54.205Z,99849.06
2023-04-28T20:01:21.233Z,99844.34
2023-04-28T20:03:49.387Z,99842.63
2023-04-28T20:06:17.700Z,99824.41
2023-04-28T20:08:45.775Z,99832.34
2023-04-28T20:11:12.819Z,99836.41
2023-04-28T20:13:39.724Z,99840.03
2023-04-28T20:16:07.328Z,99833.06
2023-04-28T20:18:36.248Z,99829.44
2023-04-28T20:21:06.600Z,99827.66
2023-04-28T20:23:38.078Z,99825.78
2023-04-28T20:26:15.562Z,99824.66
2023-04-28T20:28:46.500Z,99825.41
2023-04-28T20:31:16.555Z,99822.59
2023-04-28T20:33:43.465Z,99813.81
2023-04-28T20:36:11.172Z,99812.22
2023-04-28T20:38:40.090Z,99826.94
2023-04-28T20:41:10.602Z,99829.13
2023-04-28T20:43:44.730Z,99818.38
2023-04-28T20:46:13.798Z,99821.50
2023-04-28T20:48:42.406Z,99820.19
2023-04-28T20:51:10.884Z,99827.56
2023-04-28T20:53:41.011Z,99826.22
2023-04-28T20:56:11.889Z,99829.63
2023-04-28T20:58:42.411Z,99823.78
2023-04-28T21:01:10.786Z,99823.00
2023-04-28T21:03:38.265Z,99821.91
2023-04-28T21:06:09.035Z,99824.25
2023-04-28T21:08:40.996Z,99827.25
2023-04-28T21:11:16.037Z,99821.44
2023-04-28T21:13:43.887Z,99823.91
2023-04-28T21:16:20.975Z,99818.03
2023-04-28T21:18:49.424Z,99814.44
2023-04-28T21:21:16.952Z,99815.44
2023-04-28T21:23:44.457Z,99815.81
2023-04-28T21:26:15.751Z,99819.59
2023-04-28T21:28:45.522Z,99815.81
2023-04-28T21:31:14.222Z,99824.38
2023-04-28T21:33:46.075Z,99827.13
2023-04-28T21:36:19.530Z,99821.19
2023-04-28T21:38:46.551Z,99827.31
2023-04-28T21:41:15.986Z,99821.94
2023-04-28T21:43:43.112Z,99820.97
2023-04-28T21:46:12.675Z,99823.16
2023-04-28T21:48:43.196Z,99815.50
2023-04-28T21:51:14.566Z,99826.19
2023-04-28T21:53:41.692Z,99820.84
2023-04-28T21:56:08.554Z,99813.97
2023-04-28T21:58:35.891Z,99810.78
2023-04-28T22:01:05.233Z,99815.56
2023-04-28T22:03:35.240Z,99821.19
2023-04-28T22:06:03.301Z,99819.59
2023-04-28T22:08:31.737Z,99826.84
2023-04-28T22:10:58.787Z,99832.19
2023-04-28T22:13:25.556Z,99822.03
2023-04-28T22:15:54.161Z,99822.44
2023-04-28T22:18:20.931Z,99821.91
2023-04-28T22:20:47.802Z,99820.31
2023-04-28T22:23:14.881Z,99823.34
2023-04-28T22:25:41.925Z,99815.31
2023-04-28T22:28:09.594Z,99817.72
2023-04-28T22:30:36.835Z,99804.53
2023-04-28T22:33:03.960Z,99811.97
2023-04-28T22:35:30.937Z,99809.66
2023-04-28T22:37:57.782Z,99802.28
2023-04-28T22:40:24.581Z,99803.91
2023-04-28T22:42:54.337Z,99802.06
2023-04-28T22:45:22.458Z,99802.91
2023-04-28T22:47:56.810Z,99797.53
2023-04-28T22:50:25.259Z,99795.41
2023-04-28T22:52:52.269Z,99797.09
2023-04-28T22:55:23.441Z,99795.34
2023-04-28T22:57:51.433Z,99797.16
2023-04-28T23:00:18.823Z,99800.94
2023-04-28T23:02:46.048Z,99806.25
2023-04-28T23:05:18.061Z,99806.69
2023-04-28T23:07:45.624Z,99804.88
2023-04-28T23:10:14.784Z,99809.81
2023-04-28T23:12:41.809Z,99807.56
2023-04-28T23:15:09.029Z,99806.75
2023-04-28T23:17:39.231Z,99808.59
2023-04-28T23:20:06.689Z,99805.09
2023-04-28T23:22:34.110Z,99804.06
2023-04-28T23:25:01.423Z,99794.31
2023-04-28T23:27:31.649Z,99799.31
2023-04-28T23:29:58.810Z,99798.63
2023-04-28T23:32:27.662Z,99805.38
2023-04-28T23:34:54.807Z,99794.22
2023-04-28T23:37:21.606Z,99790.31
2023-04-28T23:39:48.789Z,99782.59
2023-04-28T23:42:16.631Z,99780.03
2023-04-28T23:44:43.939Z,99779.78
2023-04-28T23:47:12.414Z,99781.03
2023-04-28T23:49:42.318Z,99777.44
2023-04-28T23:52:10.021Z,99778.22
2023-04-28T23:54:41.474Z,99775.41
2023-04-28T23:57:09.324Z,99780.78
2023-04-28T23:59:36.206Z,99776.47
